Time;durP1;ratioP1;P1;durP2;ratioP2;P2;SDS_P1;SDS_P2;PMS_P1;PMS_P2;Temp;Humidity;BMP_temperature;BMP_pressure;BME280_temperature;BME280_humidity;BME280_pressure;Samples;Min_cycle;Max_cycle;Signal;HPM_P1;HPM_P2
2021/06/21 00:00:43;;;;;;;5.70;4.08;;;;;;;17.61;81.25;97253.12;1722952;83;20985;-80
2021/06/21 00:03:11;;;;;;;5.87;4.40;;;;;;;17.56;81.23;97252.09;1722688;83;21439;-80
2021/06/21 00:05:38;;;;;;;6.67;4.72;;;;;;;17.50;81.62;97251.19;1722805;83;21462;-80
2021/06/21 00:08:05;;;;;;;5.47;4.50;;;;;;;17.47;81.23;97249.58;1723041;83;21015;-80
2021/06/21 00:10:31;;;;;;;5.85;4.83;;;;;;;17.42;81.18;97258.42;1722998;83;21024;-80
2021/06/21 00:12:58;;;;;;;5.35;4.47;;;;;;;17.39;80.92;97254.14;1722826;83;21011;-80
2021/06/21 00:15:27;;;;;;;6.72;4.75;;;;;;;17.34;81.18;97253.60;1722947;83;21000;-80
2021/06/21 00:17:55;;;;;;;7.20;5.17;;;;;;;17.28;81.02;97257.55;1722956;83;20981;-80
2021/06/21 00:20:23;;;;;;;6.90;5.05;;;;;;;17.23;81.18;97258.85;1722804;83;21004;-81
2021/06/21 00:22:52;;;;;;;7.17;5.03;;;;;;;17.16;81.47;97258.41;1723007;83;21019;-80
2021/06/21 00:25:20;;;;;;;6.62;4.90;;;;;;;17.08;81.59;97263.42;1722833;83;20981;-81
2021/06/21 00:27:48;;;;;;;9.38;5.03;;;;;;;17.00;81.88;97247.39;1722976;83;21526;-81
2021/06/21 00:30:18;;;;;;;9.38;5.97;;;;;;;16.98;82.09;97245.78;1722979;83;21478;-81
2021/06/21 00:32:47;;;;;;;5.75;4.97;;;;;;;16.92;82.13;97245.70;1722872;83;21442;-80
2021/06/21 00:35:16;;;;;;;7.12;5.42;;;;;;;16.86;82.52;97244.28;1723086;83;20957;-81
2021/06/21 00:37:44;;;;;;;7.03;5.30;;;;;;;16.85;82.52;97249.27;1714559;83;21159;-81
2021/06/21 00:40:15;;;;;;;5.80;5.28;;;;;;;16.80;82.56;97243.84;1715622;83;21029;-81
2021/06/21 00:42:48;;;;;;;6.10;5.47;;;;;;;16.74;83.03;97249.98;1713526;83;21036;-82
2021/06/21 00:45:21;;;;;;;6.08;5.28;;;;;;;16.70;83.29;97252.48;1695637;82;21143;-81
2021/06/21 00:47:50;;;;;;;5.47;4.85;;;;;;;16.68;83.36;97250.40;1692886;85;21042;-78
2021/06/21 00:50:24;;;;;;;6.72;5.22;;;;;;;16.68;83.03;97238.36;1692004;83;21032;-78
2021/06/21 00:53:00;;;;;;;6.47;5.15;;;;;;;16.66;83.20;97240.29;1710700;79;21045;-79
2021/06/21 00:55:31;;;;;;;7.92;5.17;;;;;;;16.67;83.57;97247.35;1725408;79;21073;-81
2021/06/21 00:58:04;;;;;;;8.13;4.83;;;;;;;16.64;83.67;97244.87;1706827;82;21009;-82
2021/06/21 01:00:34;;;;;;;7.55;5.83;;;;;;;16.67;83.62;97248.69;1696179;80;21013;-83
2021/06/21 01:03:04;;;;;;;12.85;8.75;;;;;;;16.71;83.75;97238.16;1715881;80;21035;-81
2021/06/21 01:05:35;;;;;;;14.90;8.38;;;;;;;16.73;84.14;97238.91;1725271;79;21104;-82
2021/06/21 01:08:09;;;;;;;14.85;7.17;;;;;;;16.78;84.04;97237.74;1725114;80;21049;-82
2021/06/21 01:10:41;;;;;;;10.50;8.08;;;;;;;16.82;84.43;97247.28;1725825;79;21041;-82
2021/06/21 01:13:54;;;;;;;10.78;8.25;;;;;;;16.88;84.47;97242.85;1724189;83;21001;-82
2021/06/21 01:16:34;;;;;;;13.18;8.38;;;;;;;16.95;84.75;97237.48;1723195;83;21033;-83
2021/06/21 01:19:40;;;;;;;14.10;8.30;;;;;;;16.99;85.04;97242.13;1723199;83;21060;-83
2021/06/21 01:22:46;;;;;;;12.40;8.95;;;;;;;17.03;84.82;97240.97;1722960;83;21057;-82
2021/06/21 01:25:33;;;;;;;13.05;8.58;;;;;;;17.12;84.72;97242.17;1723335;83;21032;-82
2021/06/21 01:28:16;;;;;;;12.58;8.85;;;;;;;17.17;84.69;97245.39;1723376;83;21067;-82
2021/06/21 01:31:00;;;;;;;9.65;8.18;;;;;;;17.18;84.47;97239.58;1723273;83;21036;-82
2021/06/21 01:33:33;;;;;;;13.90;8.70;;;;;;;17.20;84.36;97244.33;1723237;83;21085;-82
2021/06/21 01:36:10;;;;;;;13.00;8.70;;;;;;;17.16;84.27;97242.34;1723518;83;21714;-82
2021/06/21 01:38:49;;;;;;;12.23;8.80;;;;;;;17.14;84.42;97252.29;1723610;83;21374;-82
2021/06/21 01:41:26;;;;;;;11.43;9.38;;;;;;;17.14;84.33;97250.95;1723186;83;21053;-82
2021/06/21 01:43:58;;;;;;;14.00;9.05;;;;;;;17.14;84.04;97245.12;1722950;83;21037;-82
2021/06/21 01:46:31;;;;;;;14.58;10.40;;;;;;;17.10;83.94;97253.45;1708890;83;21055;-82
2021/06/21 01:49:11;;;;;;;12.93;9.00;;;;;;;17.03;83.66;97262.38;1714916;83;21012;-82
2021/06/21 01:51:41;;;;;;;13.58;9.75;;;;;;;16.93;83.69;97255.44;1712390;83;21116;-82
2021/06/21 01:54:12;;;;;;;15.90;11.22;;;;;;;16.88;84.50;97250.41;1693994;85;21127;-82
2021/06/21 01:56:46;;;;;;;13.70;10.10;;;;;;;16.86;84.64;97248.30;1694121;84;20993;-82
2021/06/21 01:59:17;;;;;;;14.03;10.85;;;;;;;16.83;83.97;97255.22;1681352;85;21437;-82
2021/06/21 02:01:50;;;;;;;14.75;11.30;;;;;;;16.81;83.96;97260.30;1694659;84;21576;-82
2021/06/21 02:04:19;;;;;;;13.15;10.38;;;;;;;16.76;84.51;97259.25;1694420;85;21446;-82
2021/06/21 02:06:51;;;;;;;13.08;8.48;;;;;;;16.73;83.48;97260.31;1694642;84;21028;-82
2021/06/21 02:09:23;;;;;;;11.12;8.68;;;;;;;16.70;83.93;97249.80;1683094;85;21446;-82
2021/06/21 02:11:54;;;;;;;11.00;8.13;;;;;;;16.63;84.23;97253.86;1720074;83;21040;-82
2021/06/21 02:14:25;;;;;;;8.23;7.05;;;;;;;16.62;84.10;97258.84;1710049;83;21013;-82
2021/06/21 02:16:56;;;;;;;10.48;7.17;;;;;;;16.61;85.49;97259.80;1699836;83;21072;-82
2021/06/21 02:19:30;;;;;;;11.15;6.78;;;;;;;16.60;84.26;97258.06;1682312;85;21048;-82
2021/06/21 02:21:58;;;;;;;9.35;6.60;;;;;;;16.57;84.90;97254.27;1694690;84;20989;-82
2021/06/21 02:24:30;;;;;;;8.78;6.53;;;;;;;16.57;84.19;97255.61;1694696;85;21438;-81
2021/06/21 02:27:02;;;;;;;7.45;5.95;;;;;;;16.54;84.33;97259.81;1694700;84;21013;-82
2021/06/21 02:29:32;;;;;;;9.55;6.30;;;;;;;16.50;84.17;97258.67;1694464;84;21064;-82
2021/06/21 02:32:08;;;;;;;;;;;;;;;16.48;84.08;97246.36;1697133;84;21537;-82
2021/06/21 02:34:39;;;;;;;9.20;6.20;;;;;;;16.45;84.29;97243.91;1694389;85;20343;-84
2021/06/21 02:37:16;;;;;;;7.55;6.15;;;;;;;16.42;84.23;97248.97;1694674;84;21001;-82
2021/06/21 02:39:43;;;;;;;7.80;5.90;;;;;;;16.42;84.57;97247.64;1700106;83;20958;-82
2021/06/21 02:42:18;;;;;;;8.35;6.00;;;;;;;16.46;84.00;97246.48;1700869;83;21116;-82
2021/06/21 02:44:46;;;;;;;8.03;5.60;;;;;;;16.50;84.33;97240.45;1700659;84;21024;-81
2021/06/21 02:47:19;;;;;;;9.28;5.70;;;;;;;16.53;84.78;97242.05;1676830;84;21056;-81
2021/06/21 02:49:55;;;;;;;6.67;5.35;;;;;;;16.56;84.69;97244.05;1700564;84;20989;-81
2021/06/21 02:52:56;;;;;;;9.58;5.75;;;;;;;16.60;84.87;97242.02;1700508;84;21441;-81
2021/06/21 02:55:57;;;;;;;7.92;5.92;;;;;;;16.66;84.86;97250.13;1700862;84;21462;-83
2021/06/21 02:58:33;;;;;;;6.58;5.53;;;;;;;16.71;84.97;97251.55;1700082;84;21629;-83
2021/06/21 03:01:07;;;;;;;9.88;6.20;;;;;;;16.76;84.90;97254.77;1697404;84;21478;-83
2021/06/21 03:03:39;;;;;;;7.87;6.80;;;;;;;16.80;84.89;97247.85;1683639;84;21045;-83
2021/06/21 03:06:14;;;;;;;10.00;7.72;;;;;;;16.88;84.82;97250.41;1681821;84;21493;-83
2021/06/21 03:08:44;;;;;;;13.00;9.20;;;;;;;16.94;84.79;97245.10;1671338;84;21036;-84
2021/06/21 03:11:18;;;;;;;13.03;10.72;;;;;;;17.02;84.55;97248.59;1690462;84;21032;-83
2021/06/21 03:13:52;;;;;;;13.60;10.00;;;;;;;17.08;84.45;97251.38;1697548;84;21005;-83
2021/06/21 03:16:28;;;;;;;16.48;10.10;;;;;;;17.11;84.36;97249.34;1697603;84;21028;-83
2021/06/21 03:18:59;;;;;;;13.90;10.65;;;;;;;17.21;84.18;97253.59;1697603;84;21069;-83
2021/06/21 03:21:29;;;;;;;16.50;9.95;;;;;;;17.26;83.75;97246.11;1678392;84;21056;-82
2021/06/21 03:23:59;;;;;;;15.18;10.18;;;;;;;17.28;83.34;97247.34;1669712;86;20997;-83
2021/06/21 03:26:36;;;;;;;13.20;10.25;;;;;;;17.28;83.00;97236.63;1669569;86;21028;-83
2021/06/21 03:29:20;;;;;;;13.83;10.10;;;;;;;17.27;82.93;97237.57;1679448;84;21422;-83
2021/06/21 03:31:51;;;;;;;12.95;9.78;;;;;;;17.25;82.63;97233.69;1698112;84;21037;-82
2021/06/21 03:34:27;;;;;;;12.58;8.08;;;;;;;17.25;82.57;97236.36;1671595;83;21048;-83
2021/06/21 03:37:01;;;;;;;16.82;10.65;;;;;;;17.26;82.33;97242.09;1670543;83;21505;-84
2021/06/21 03:39:31;;;;;;;13.80;10.63;;;;;;;17.27;82.18;97233.08;1669583;86;20961;-83
2021/06/21 03:41:59;;;;;;;14.03;10.60;;;;;;;17.26;82.42;97243.42;1710553;84;21000;-84
2021/06/21 03:44:32;;;;;;;13.00;9.55;;;;;;;17.24;82.24;97248.02;1712690;83;20968;-83
2021/06/21 03:47:03;;;;;;;12.47;10.28;;;;;;;17.23;82.52;97237.44;1712807;83;21108;-85
2021/06/21 03:49:33;;;;;;;14.93;10.95;;;;;;;17.20;82.39;97234.48;1712741;84;20956;-84
2021/06/21 03:52:03;;;;;;;17.73;10.80;;;;;;;17.16;82.01;97241.01;1712499;84;21039;-83
2021/06/21 03:54:34;;;;;;;15.65;11.33;;;;;;;17.14;82.44;97237.56;1688157;84;21056;-84
2021/06/21 03:57:11;;;;;;;18.85;11.60;;;;;;;17.12;82.14;97239.03;1692936;84;21040;-83
2021/06/21 03:59:44;;;;;;;17.37;11.30;;;;;;;17.12;82.30;97242.17;1669370;86;21144;-84
2021/06/21 04:02:14;;;;;;;13.32;10.98;;;;;;;17.12;81.99;97238.16;1669587;86;20996;-83
2021/06/21 04:04:44;;;;;;;14.05;10.35;;;;;;;17.14;82.01;97237.09;1682392;84;21011;-83
2021/06/21 04:07:13;;;;;;;16.05;11.15;;;;;;;17.18;82.22;97240.91;1696510;84;21405;-83
2021/06/21 04:09:42;;;;;;;15.15;10.72;;;;;;;17.24;82.05;97237.80;1698160;84;21012;-83
2021/06/21 04:12:13;;;;;;;13.30;10.90;;;;;;;17.33;81.94;97238.98;1706722;83;21060;-81
2021/06/21 04:14:44;;;;;;;13.62;10.72;;;;;;;17.43;81.93;97241.88;1697557;84;20957;-82
2021/06/21 04:17:12;;;;;;;15.05;10.80;;;;;;;17.52;81.90;97247.44;1671588;84;21084;-82
2021/06/21 04:19:39;;;;;;;12.15;9.73;;;;;;;17.59;82.46;97241.17;1696693;84;21044;-82
2021/06/21 04:22:11;;;;;;;15.28;10.43;;;;;;;17.63;82.29;97241.80;1688116;84;21040;-81
2021/06/21 04:24:45;;;;;;;13.43;10.32;;;;;;;17.65;82.01;97243.41;1669434;86;21033;-81
2021/06/21 04:27:17;;;;;;;17.35;10.98;;;;;;;17.73;81.80;97244.70;1669634;86;21055;-82
2021/06/21 04:29:45;;;;;;;14.23;10.60;;;;;;;17.84;81.47;97250.62;1669636;86;21016;-82
2021/06/21 04:32:15;;;;;;;10.45;8.40;;;;;;;17.91;81.34;97242.53;1666843;86;21032;-82
2021/06/21 04:34:47;;;;;;;12.88;8.83;;;;;;;18.00;81.37;97243.67;1692281;84;21092;-82
2021/06/21 04:37:16;;;;;;;12.53;9.35;;;;;;;18.07;81.24;97242.31;1671425;84;21048;-82
2021/06/21 04:39:46;;;;;;;16.30;9.25;;;;;;;18.14;81.22;97243.56;1698002;84;20973;-83
2021/06/21 04:42:17;;;;;;;16.27;9.60;;;;;;;18.18;81.08;97238.36;1697383;84;21496;-83
2021/06/21 04:44:47;;;;;;;22.95;16.02;;;;;;;18.23;81.08;97235.33;1682453;84;21002;-83
2021/06/21 04:47:20;;;;;;;13.93;8.83;;;;;;;18.28;80.91;97239.90;1667802;86;21079;-83
2021/06/21 04:49:54;;;;;;;12.90;8.80;;;;;;;18.39;80.90;97241.77;1668904;86;21437;-81
2021/06/21 04:52:28;;;;;;;14.65;9.38;;;;;;;18.50;80.69;97246.34;1669377;86;21576;-82
2021/06/21 04:55:01;;;;;;;13.50;9.78;;;;;;;18.58;80.31;97244.43;1669554;86;21180;-82
2021/06/21 04:57:29;;;;;;;11.93;8.93;;;;;;;18.63;79.96;97244.11;1669593;86;21033;-83
2021/06/21 05:00:00;;;;;;;10.03;8.40;;;;;;;18.66;79.79;97246.54;1669236;86;21442;-85
2021/06/21 05:02:32;;;;;;;11.53;8.13;;;;;;;18.67;79.54;97238.38;1669572;86;21030;-84
2021/06/21 05:05:07;;;;;;;12.85;9.13;;;;;;;18.69;79.44;97240.45;1669605;86;21495;-82
2021/06/21 05:07:36;;;;;;;11.97;8.53;;;;;;;18.71;79.18;97233.16;1669593;84;21103;-83
2021/06/21 05:10:08;;;;;;;11.95;7.90;;;;;;;18.71;78.99;97227.79;1664473;85;21034;-81
2021/06/21 05:12:41;;;;;;;8.93;7.60;;;;;;;18.73;78.67;97228.52;1685860;84;21037;-81
2021/06/21 05:15:10;;;;;;;8.95;7.55;;;;;;;18.73;78.69;97236.56;1671597;84;20949;-81
2021/06/21 05:17:40;;;;;;;11.25;7.22;;;;;;;18.74;78.59;97226.70;1696652;84;20989;-81
2021/06/21 05:20:14;;;;;;;12.43;7.65;;;;;;;18.76;78.85;97229.27;1697582;84;21055;-81
2021/06/21 05:22:49;;;;;;;15.80;9.48;;;;;;;18.73;78.81;97239.25;1686353;84;21514;-81
2021/06/21 05:25:20;;;;;;;12.82;10.05;;;;;;;18.73;78.79;97235.23;1699931;84;20983;-82
2021/06/21 05:27:54;;;;;;;13.98;9.28;;;;;;;18.76;78.61;97230.61;1701524;83;21002;-82
2021/06/21 05:30:27;;;;;;;10.82;7.70;;;;;;;18.77;78.57;97235.84;1697715;84;21034;-81
2021/06/21 05:32:57;;;;;;;13.43;7.65;;;;;;;18.77;78.77;97235.00;1695005;84;20994;-82
2021/06/21 05:35:26;;;;;;;8.98;6.95;;;;;;;18.76;79.37;97233.30;1690080;84;21045;-82
2021/06/21 05:37:59;;;;;;;9.83;6.95;;;;;;;18.77;78.75;97236.34;1690280;84;21072;-82
2021/06/21 05:40:27;;;;;;;8.33;6.87;;;;;;;18.77;78.83;97246.58;1686956;84;21080;-82
2021/06/21 05:42:56;;;;;;;8.90;6.92;;;;;;;18.79;79.43;97235.26;1672196;84;21064;-82
2021/06/21 05:45:24;;;;;;;8.68;7.50;;;;;;;18.81;78.91;97235.98;1669389;86;21120;-82
2021/06/21 05:47:51;;;;;;;7.62;6.83;;;;;;;18.85;78.91;97240.16;1693377;84;20984;-82
2021/06/21 05:50:20;;;;;;;10.20;7.22;;;;;;;18.85;78.92;97244.18;1712488;83;21099;-82
2021/06/21 05:52:53;;;;;;;6.00;5.30;;;;;;;18.91;78.92;97246.03;1712829;84;21095;-83
2021/06/21 05:55:23;;;;;;;8.33;5.42;;;;;;;18.92;78.89;97246.39;1709312;84;21084;-86
2021/06/21 05:58:00;;;;;;;7.30;5.20;;;;;;;18.95;78.60;97252.41;1697673;84;21035;-86
2021/06/21 06:00:29;;;;;;;6.30;5.05;;;;;;;19.01;78.65;97253.75;1697568;84;21020;-86
2021/06/21 06:02:58;;;;;;;6.60;5.85;;;;;;;19.04;78.42;97248.63;1697541;84;21076;-83
2021/06/21 06:05:29;;;;;;;6.40;5.25;;;;;;;19.12;78.27;97248.47;1691276;84;21071;-82
2021/06/21 06:08:02;;;;;;;9.13;5.80;;;;;;;19.19;78.37;97242.62;1694310;84;21028;-84
2021/06/21 06:10:35;;;;;;;7.70;5.55;;;;;;;19.25;78.21;97245.69;1689662;84;21139;-83
2021/06/21 06:13:07;;;;;;;6.95;6.22;;;;;;;19.31;78.22;97251.05;1695421;84;20969;-83
2021/06/21 06:15:39;;;;;;;6.15;5.30;;;;;;;19.37;78.21;97253.28;1693665;84;21031;-82
2021/06/21 06:18:11;;;;;;;7.33;6.00;;;;;;;19.40;78.15;97248.16;1684866;84;21401;-83
2021/06/21 06:20:43;;;;;;;6.55;5.78;;;;;;;19.49;78.13;97254.16;1697144;84;21044;-83
2021/06/21 06:23:17;;;;;;;7.80;6.05;;;;;;;19.62;77.66;97245.98;1693262;84;21457;-83
2021/06/21 06:25:50;;;;;;;6.80;5.47;;;;;;;19.73;77.52;97247.80;1697823;84;21040;-87
2021/06/21 06:28:21;;;;;;;6.92;4.35;;;;;;;19.82;77.20;97251.61;1697476;84;21020;-86
2021/06/21 06:30:50;;;;;;;6.85;5.10;;;;;;;19.92;77.24;97240.48;1697493;84;21485;-84
2021/06/21 06:33:16;;;;;;;6.40;4.90;;;;;;;20.04;76.94;97243.19;1697995;84;20965;-84
2021/06/21 06:35:44;;;;;;;7.92;5.17;;;;;;;20.15;76.92;97242.33;1698011;84;21024;-85
2021/06/21 06:38:13;;;;;;;6.58;5.75;;;;;;;20.26;76.34;97244.99;1697799;84;21016;-85
2021/06/21 06:40:45;;;;;;;6.15;4.53;;;;;;;20.35;75.63;97248.79;1696429;84;21052;-84
2021/06/21 06:43:17;;;;;;;8.73;5.08;;;;;;;20.45;76.07;97250.22;1695512;84;21024;-84
2021/06/21 06:45:47;;;;;;;6.03;4.80;;;;;;;20.56;75.64;97250.17;1692222;84;21017;-84
2021/06/21 06:48:20;;;;;;;5.22;4.40;;;;;;;20.67;75.15;97243.91;1689540;84;20971;-85
2021/06/21 06:50:47;;;;;;;5.20;3.95;;;;;;;20.76;74.39;97237.40;1708367;84;21037;-84
2021/06/21 06:53:25;;;;;;;5.67;4.12;;;;;;;20.86;74.35;97238.37;1697130;84;21032;-85
2021/06/21 06:58:34;;;;;;;5.00;3.87;;;;;;;21.05;73.46;97236.81;1697540;84;21076;-85
2021/06/21 07:01:00;;;;;;;5.28;3.60;;;;;;;21.15;72.90;97243.61;1697539;84;21068;-85
2021/06/21 07:03:29;;;;;;;4.12;3.72;;;;;;;21.16;71.82;97239.44;1697457;84;21073;-85
2021/06/21 07:06:02;;;;;;;4.78;4.00;;;;;;;21.21;72.16;97239.03;1697382;84;21101;-85
2021/06/21 07:08:34;;;;;;;3.67;3.30;;;;;;;21.26;71.79;97233.27;1694543;84;21477;-84
2021/06/21 07:11:02;;;;;;;4.70;3.70;;;;;;;21.32;71.75;97228.69;1691168;84;21013;-87
2021/06/21 07:13:33;;;;;;;6.00;3.37;;;;;;;21.37;71.55;97227.80;1695440;84;21072;-86
2021/06/21 07:16:02;;;;;;;4.30;3.83;;;;;;;21.42;71.13;97224.72;1691707;84;21036;-85
2021/06/21 07:18:37;;;;;;;5.80;3.65;;;;;;;21.50;71.12;97228.92;1697498;84;20989;-86
2021/06/21 07:21:09;;;;;;;3.95;3.58;;;;;;;21.55;70.90;97225.33;1695343;84;21002;-86
2021/06/21 07:23:39;;;;;;;3.87;3.55;;;;;;;21.61;70.80;97220.78;1696975;84;20934;-85
2021/06/21 07:26:11;;;;;;;4.60;3.77;;;;;;;21.68;70.52;97218.40;1697516;84;21023;-86
2021/06/21 07:28:42;;;;;;;4.15;3.52;;;;;;;21.75;70.47;97222.28;1697379;84;21084;-86
2021/06/21 07:31:15;;;;;;;3.77;3.47;;;;;;;21.82;70.32;97217.69;1696311;84;21068;-86
2021/06/21 07:33:51;;;;;;;4.22;3.05;;;;;;;21.89;69.91;97216.17;1684403;84;21039;-86
2021/06/21 07:36:24;;;;;;;3.20;2.90;;;;;;;21.97;69.51;97225.76;1687201;84;21084;-87
2021/06/21 07:38:56;;;;;;;5.35;3.10;;;;;;;22.02;69.22;97222.16;1697553;84;20973;-86
2021/06/21 07:41:26;;;;;;;4.87;3.58;;;;;;;22.06;67.55;97219.19;1697368;84;21036;-87
2021/06/21 07:43:55;;;;;;;3.80;3.20;;;;;;;22.11;68.59;97219.15;1697295;84;21016;-86
2021/06/21 07:46:23;;;;;;;4.83;2.90;;;;;;;22.17;67.72;97210.98;1697600;84;20988;-87
2021/06/21 07:48:54;;;;;;;4.03;3.20;;;;;;;22.22;67.67;97208.72;1697091;84;21035;-87
2021/06/21 07:51:30;;;;;;;3.40;3.10;;;;;;;22.29;67.61;97210.36;1697102;84;21131;-86
2021/06/21 07:54:01;;;;;;;;;;;;;;;22.36;67.47;97207.48;1700025;84;21041;-85
2021/06/21 07:56:32;;;;;;;3.37;3.05;;;;;;;22.44;66.76;97211.31;1701924;84;20367;-86
2021/06/21 07:59:02;;;;;;;3.90;3.02;;;;;;;22.49;66.27;97215.31;1692164;84;20965;-86
2021/06/21 08:01:32;;;;;;;3.37;3.08;;;;;;;22.56;66.09;97212.94;1669279;86;21531;-86
2021/06/21 08:04:06;;;;;;;3.00;2.80;;;;;;;22.62;65.90;97215.06;1675599;84;21029;-86
2021/06/21 08:06:40;;;;;;;3.30;3.00;;;;;;;22.70;66.53;97209.47;1701797;84;20945;-86
2021/06/21 08:09:15;;;;;;;3.33;3.02;;;;;;;22.77;64.76;97209.25;1709582;84;21007;-86
2021/06/21 08:11:47;;;;;;;4.80;2.83;;;;;;;22.81;64.70;97206.13;1698843;84;21081;-86
2021/06/21 08:14:17;;;;;;;3.33;2.83;;;;;;;22.84;64.89;97206.34;1698342;84;21063;-87
2021/06/21 08:16:48;;;;;;;3.30;3.00;;;;;;;22.89;64.56;97214.01;1712584;84;21052;-87
2021/06/21 08:19:19;;;;;;;4.00;3.05;;;;;;;22.92;64.29;97211.87;1712634;84;20999;-86
2021/06/21 08:21:48;;;;;;;3.25;2.95;;;;;;;22.98;64.65;97213.64;1712806;84;21301;-86
2021/06/21 08:24:18;;;;;;;6.97;3.42;;;;;;;23.04;63.06;97210.39;1699600;84;21016;-87
2021/06/21 08:26:49;;;;;;;2.98;2.75;;;;;;;23.06;63.48;97208.38;1697171;84;21033;-87
2021/06/21 08:29:21;;;;;;;2.60;2.40;;;;;;;23.15;62.53;97209.35;1675863;84;21180;-87
2021/06/21 08:31:52;;;;;;;2.70;2.50;;;;;;;23.19;61.42;97200.83;1683114;84;21001;-87
2021/06/21 08:34:21;;;;;;;3.33;2.77;;;;;;;23.26;61.30;97204.30;1697553;84;21051;-87
2021/06/21 08:36:51;;;;;;;3.27;2.98;;;;;;;23.31;61.84;97201.52;1669205;86;21117;-86
2021/06/21 08:39:21;;;;;;;2.98;2.67;;;;;;;23.38;61.23;97203.66;1644419;86;20989;-86
2021/06/21 08:41:48;;;;;;;3.00;2.75;;;;;;;23.46;61.54;97205.14;1669632;86;21046;-86
2021/06/21 08:44:18;;;;;;;2.58;2.30;;;;;;;23.52;60.95;97211.31;1669393;86;20984;-86
2021/06/21 08:46:51;;;;;;;3.12;2.58;;;;;;;23.59;60.95;97212.41;1697467;84;21009;-85
2021/06/21 08:49:23;;;;;;;;;;;;;;;23.65;60.09;97216.39;1683451;84;21505;-86
2021/06/21 08:51:57;;;;;;;2.72;2.40;;;;;;;23.65;59.69;97217.73;1679169;84;20092;-86
2021/06/21 08:54:27;;;;;;;2.87;2.45;;;;;;;23.69;60.00;97215.58;1693281;84;21016;-85
2021/06/21 08:56:58;;;;;;;3.02;2.80;;;;;;;23.78;60.14;97219.27;1709460;84;21052;-86
2021/06/21 08:59:22;;;;;;;3.58;2.67;;;;;;;23.84;59.81;97220.86;1709297;84;21389;-85
2021/06/21 09:01:51;;;;;;;3.45;2.55;;;;;;;23.93;59.23;97223.68;1713822;83;21064;-85
2021/06/21 09:04:23;;;;;;;5.40;2.20;;;;;;;24.00;58.24;97211.27;1696149;85;21016;-85
2021/06/21 09:06:54;;;;;;;;;;;;;;;24.02;57.82;97209.74;1698878;83;21044;-86
2021/06/21 09:09:35;;;;;;;4.25;2.55;;;;;;;24.04;56.29;97213.17;1719206;83;20396;-85
2021/06/21 09:12:03;;;;;;;3.10;2.25;;;;;;;24.05;57.08;97211.67;1719039;83;21005;-87
2021/06/21 09:14:40;;;;;;;3.58;2.65;;;;;;;24.09;57.07;97207.67;1704214;83;21131;-86
2021/06/21 09:17:12;;;;;;;3.77;2.30;;;;;;;24.15;57.15;97212.16;1695612;83;21013;-86
2021/06/21 09:19:53;;;;;;;2.87;2.20;;;;;;;24.24;56.48;97205.80;1712457;83;20988;-86
2021/06/21 09:22:43;;;;;;;3.62;2.30;;;;;;;24.33;56.82;97202.19;1701496;84;21025;-86
2021/06/21 09:25:21;;;;;;;2.87;2.42;;;;;;;24.38;56.75;97202.58;1696669;83;21070;-86
2021/06/21 09:28:03;;;;;;;4.08;2.40;;;;;;;24.45;56.63;97211.47;1709233;83;20993;-86
2021/06/21 09:30:34;;;;;;;2.60;2.40;;;;;;;24.52;55.96;97212.06;1695587;85;21347;-87
2021/06/21 09:33:08;;;;;;;2.92;2.30;;;;;;;24.56;54.76;97207.17;1683916;83;20996;-86
2021/06/21 09:35:45;;;;;;;4.85;2.95;;;;;;;24.64;55.67;97207.27;1726407;83;21479;-86
2021/06/21 09:38:17;;;;;;;2.60;2.40;;;;;;;24.71;54.66;97204.80;1714589;83;21501;-86
2021/06/21 09:40:52;;;;;;;2.90;2.50;;;;;;;24.81;55.05;97203.34;1701636;84;21001;-85
2021/06/21 09:43:35;;;;;;;2.50;2.08;;;;;;;24.84;53.98;97196.30;1700544;83;21036;-86
2021/06/21 09:46:33;;;;;;;;;;;;;;;;;;;;;
2021/06/21 09:48:55;;;;;;;4.37;2.30;;;;;;;25.01;53.71;97179.67;1690220;84;21088;-86
2021/06/21 09:51:32;;;;;;;3.40;2.35;;;;;;;25.10;53.58;97181.94;1673322;86;20988;-86
2021/06/21 09:54:23;;;;;;;2.40;2.20;;;;;;;25.12;52.65;97183.97;1679870;83;20977;-86
2021/06/21 09:56:51;;;;;;;4.20;2.22;;;;;;;25.14;53.13;97186.53;1700123;84;21071;-86
2021/06/21 09:59:33;;;;;;;5.53;2.50;;;;;;;25.14;52.96;97186.03;1670829;85;21131;-87
2021/06/21 10:02:22;;;;;;;2.75;2.45;;;;;;;25.21;52.79;97184.90;1691420;84;21008;-86
2021/06/21 10:04:49;;;;;;;4.30;2.42;;;;;;;25.29;53.24;97182.75;1691460;84;21020;-85
2021/06/21 10:07:35;;;;;;;5.45;2.42;;;;;;;25.41;52.85;97179.27;1696477;84;21013;-86
2021/06/21 10:10:14;;;;;;;2.20;2.00;;;;;;;25.50;53.18;97175.59;1693568;84;21079;-86
2021/06/21 10:12:51;;;;;;;2.52;2.20;;;;;;;25.60;52.42;97170.07;1695161;84;21036;-85
2021/06/21 10:15:21;;;;;;;4.47;2.40;;;;;;;25.66;52.16;97170.77;1668606;84;21692;-84
2021/06/21 10:17:49;;;;;;;3.80;2.00;;;;;;;25.76;52.42;97174.73;1690725;84;21068;-84
2021/06/21 10:20:19;;;;;;;2.87;2.60;;;;;;;25.89;51.60;97176.99;1695809;84;21041;-83
2021/06/21 10:22:51;;;;;;;3.20;2.45;;;;;;;26.02;51.96;97177.89;1696107;84;21019;-83
2021/06/21 10:25:21;;;;;;;7.42;2.22;;;;;;;26.13;50.89;97177.24;1696814;84;21084;-83
2021/06/21 10:27:50;;;;;;;4.10;2.10;;;;;;;26.24;50.99;97185.11;1672492;84;20956;-84
2021/06/21 10:30:26;;;;;;;4.72;2.30;;;;;;;26.36;50.81;97182.94;1696788;84;21139;-85
2021/06/21 10:32:55;;;;;;;;;;;;;;;26.48;48.84;97176.19;1699623;84;21016;-85
2021/06/21 10:35:30;;;;;;;4.10;2.60;;;;;;;26.60;50.99;97170.41;1697125;83;20188;-84
2021/06/21 10:38:05;;;;;;;3.65;2.45;;;;;;;26.72;50.65;97171.80;1696991;84;21141;-85
2021/06/21 10:40:43;;;;;;;2.60;2.40;;;;;;;26.84;49.62;97171.45;1697133;84;21107;-84
2021/06/21 10:43:14;;;;;;;2.80;2.27;;;;;;;26.92;49.12;97147.00;1680422;84;21095;-84
2021/06/21 10:45:45;;;;;;;2.52;2.30;;;;;;;27.22;49.49;97160.94;1668421;84;20970;-83
2021/06/21 10:48:16;;;;;;;4.55;2.60;;;;;;;28.06;48.80;97166.48;1697188;84;21092;-83
2021/06/21 10:50:54;;;;;;;4.25;2.52;;;;;;;29.12;46.98;97165.66;1697044;84;21016;-85
2021/06/21 10:53:26;;;;;;;3.87;2.70;;;;;;;30.04;44.42;97166.89;1696323;84;21063;-84
2021/06/21 10:56:00;;;;;;;3.37;2.42;;;;;;;30.93;43.54;97162.77;1646208;84;21064;-82
2021/06/21 10:58:34;;;;;;;3.10;2.33;;;;;;;31.70;40.66;97157.98;1695638;84;21025;-82
2021/06/21 11:01:16;;;;;;;3.70;2.33;;;;;;;32.42;40.39;97163.16;1695703;84;20996;-83
2021/06/21 11:03:48;;;;;;;4.15;2.30;;;;;;;33.14;37.57;97164.61;1704167;84;20968;-81
2021/06/21 11:06:26;;;;;;;3.55;2.20;;;;;;;33.70;35.38;97160.55;1697349;84;21536;-82
2021/06/21 11:08:58;;;;;;;10.28;2.72;;;;;;;34.31;35.60;97165.87;1689547;84;21540;-82
2021/06/21 11:11:44;;;;;;;6.22;2.37;;;;;;;34.76;31.74;97158.66;1689562;84;20989;-81
2021/06/21 11:14:24;;;;;;;4.67;2.10;;;;;;;35.15;33.17;97165.48;1697703;84;21017;-81
2021/06/21 11:17:19;;;;;;;4.42;2.42;;;;;;;35.71;32.95;97164.78;1696346;84;21596;-82
2021/06/21 11:19:49;;;;;;;5.65;2.45;;;;;;;35.99;31.40;97157.35;1697705;83;21020;-82
2021/06/21 11:22:21;;;;;;;4.70;2.40;;;;;;;36.38;32.20;97157.64;1670505;84;21065;-81
2021/06/21 11:24:55;;;;;;;4.53;2.50;;;;;;;36.75;31.60;97154.83;1707475;84;21392;-81
2021/06/21 11:27:29;;;;;;;3.83;2.52;;;;;;;36.87;30.14;97153.48;1690906;84;21105;-79
2021/06/21 11:30:02;;;;;;;5.87;2.83;;;;;;;37.09;29.55;97151.53;1688109;84;21001;-80
2021/06/21 11:32:33;;;;;;;3.72;2.83;;;;;;;37.64;29.88;97146.79;1661561;84;21560;-83
2021/06/21 11:35:03;;;;;;;4.97;2.80;;;;;;;38.09;28.88;97151.36;1666909;84;21552;-82
2021/06/21 11:37:48;;;;;;;5.87;2.62;;;;;;;38.39;28.33;97140.61;1688538;84;21080;-82
2021/06/21 11:40:22;;;;;;;5.03;2.40;;;;;;;38.66;28.01;97145.59;1688758;84;21080;-83
2021/06/21 11:43:06;;;;;;;5.50;2.45;;;;;;;39.16;27.06;97145.38;1691667;84;21001;-82
2021/06/21 11:46:02;;;;;;;7.30;2.67;;;;;;;39.33;26.84;97146.76;1692917;84;21107;-82
2021/06/21 11:48:42;;;;;;;2.37;2.00;;;;;;;39.66;24.68;97140.05;1679200;84;21005;-81
2021/06/21 11:51:18;;;;;;;6.12;3.12;;;;;;;39.62;26.06;97144.96;1696668;84;21526;-80
2021/06/21 11:53:49;;;;;;;5.53;2.70;;;;;;;39.17;25.77;97148.44;1694180;84;20997;-81
2021/06/21 11:56:26;;;;;;;3.33;2.55;;;;;;;39.24;25.99;97148.27;1694063;84;21024;-81
2021/06/21 11:58:59;;;;;;;4.95;2.80;;;;;;;39.65;24.69;97147.23;1696223;84;21485;-81
2021/06/21 12:01:31;;;;;;;5.87;2.60;;;;;;;39.67;25.21;97143.11;1696010;84;21088;-82